Time;durP1;ratioP1;P1;durP2;ratioP2;P2;SDS_P1;SDS_P2;PMS_P1;PMS_P2;Temp;Humidity;BMP_temperature;BMP_pressure;BME280_temperature;BME280_humidity;BME280_pressure;Samples;Min_cycle;Max_cycle;Signal;HPM_P1;HPM_P2
2021/08/20 00:01:10;;;;;;;6.53;5.13;;;17.00;99.90;;;;;;5128128;27;20195;-40
2021/08/20 00:03:35;;;;;;;5.67;5.17;;;17.00;99.90;;;;;;5124673;27;20187;-38
2021/08/20 00:06:01;;;;;;;6.30;5.40;;;17.00;99.90;;;;;;5130292;27;20251;-39
2021/08/20 00:08:27;;;;;;;6.30;5.67;;;16.90;99.90;;;;;;5130284;27;20678;-38
2021/08/20 00:10:53;;;;;;;5.37;4.87;;;16.80;99.90;;;;;;5120865;27;20207;-38
2021/08/20 00:13:19;;;;;;;8.60;5.13;;;16.80;99.90;;;;;;5110039;28;20222;-39
2021/08/20 00:15:45;;;;;;;6.23;5.20;;;16.80;99.90;;;;;;5109923;28;20671;-38
2021/08/20 00:18:11;;;;;;;5.60;5.10;;;16.90;99.90;;;;;;5117186;27;20429;-39
2021/08/20 00:20:37;;;;;;;6.70;5.20;;;16.90;99.90;;;;;;5128997;27;20507;-40
2021/08/20 00:23:03;;;;;;;6.33;5.40;;;17.00;99.90;;;;;;5130019;27;20580;-40
2021/08/20 00:25:30;;;;;;;6.00;5.40;;;16.90;99.90;;;;;;5130067;27;20289;-39
2021/08/20 00:27:55;;;;;;;5.70;5.20;;;16.90;99.90;;;;;;5129822;27;20424;-38
2021/08/20 00:30:21;;;;;;;10.53;6.33;;;16.90;99.90;;;;;;5129067;27;20818;-38
2021/08/20 00:32:47;;;;;;;8.00;5.67;;;16.90;99.90;;;;;;5118067;27;20188;-37
2021/08/20 00:35:13;;;;;;;6.60;5.77;;;16.90;99.90;;;;;;5129836;27;20187;-38
2021/08/20 00:37:38;;;;;;;7.20;5.10;;;16.90;99.90;;;;;;5114448;27;20196;-38
2021/08/20 00:40:06;;;;;;;6.57;5.50;;;16.90;99.90;;;;;;5129041;27;20191;-40
2021/08/20 00:42:32;;;;;;;7.83;6.13;;;16.90;99.90;;;;;;5129479;27;20708;-38
2021/08/20 00:44:58;;;;;;;6.33;5.73;;;17.00;99.90;;;;;;5129657;27;20540;-41
2021/08/20 00:47:23;;;;;;;8.33;6.30;;;17.00;99.90;;;;;;5122874;27;20437;-38
2021/08/20 00:49:50;;;;;;;6.30;5.53;;;17.00;99.90;;;;;;5121412;27;20213;-38
2021/08/20 00:52:17;;;;;;;7.87;6.30;;;17.00;99.90;;;;;;5126365;27;20171;-39
2021/08/20 00:54:43;;;;;;;8.53;5.87;;;17.00;99.90;;;;;;5128893;27;20839;-41
2021/08/20 00:57:09;;;;;;;7.43;6.53;;;17.00;99.90;;;;;;5129026;27;20524;-39
2021/08/20 00:59:35;;;;;;;6.50;5.90;;;17.00;99.90;;;;;;5128769;27;20191;-38
2021/08/20 01:02:02;;;;;;;9.27;5.50;;;17.00;99.90;;;;;;5123042;27;20242;-39
2021/08/20 01:04:28;;;;;;;9.83;5.70;;;17.00;99.90;;;;;;5120688;27;20285;-38
2021/08/20 01:06:56;;;;;;;5.90;5.17;;;17.00;99.90;;;;;;5129211;27;20512;-39
2021/08/20 01:09:23;;;;;;;5.77;5.27;;;17.00;99.90;;;;;;5128150;27;20195;-38
2021/08/20 01:11:51;;;;;;;8.30;5.77;;;17.00;99.90;;;;;;5126894;27;20417;-39
2021/08/20 01:14:34;;;;;;;7.10;5.37;;;16.90;99.90;;;;;;5128797;27;20441;-40
2021/08/20 01:17:01;;;;;;;8.10;6.27;;;16.90;99.90;;;;;;5125203;27;20536;-40
2021/08/20 01:19:27;;;;;;;7.97;6.20;;;16.80;99.90;;;;;;5123630;27;20453;-41
2021/08/20 01:21:53;;;;;;;6.47;5.83;;;16.90;99.90;;;;;;5129007;27;20861;-38
2021/08/20 01:24:20;;;;;;;6.67;5.50;;;16.80;99.90;;;;;;5129106;27;20183;-38
2021/08/20 01:26:47;;;;;;;5.67;5.17;;;16.80;99.90;;;;;;5128908;27;20237;-38
2021/08/20 01:29:16;;;;;;;6.63;6.00;;;16.80;99.90;;;;;;5127985;27;20911;-40
2021/08/20 01:31:43;;;;;;;6.60;5.17;;;16.80;99.90;;;;;;5128769;27;20513;-38
2021/08/20 01:34:09;;;;;;;5.80;5.20;;;16.80;99.90;;;;;;5119143;27;20431;-41
2021/08/20 01:36:34;;;;;;;6.50;5.23;;;16.90;99.90;;;;;;5127001;27;20413;-39
2021/08/20 01:39:00;;;;;;;6.10;5.30;;;16.90;99.90;;;;;;5127772;27;20182;-41
2021/08/20 01:41:27;;;;;;;5.40;4.53;;;16.80;99.90;;;;;;5117569;27;20214;-39
2021/08/20 01:43:54;;;;;;;5.90;5.40;;;16.90;99.90;;;;;;5128484;27;20681;-42
2021/08/20 01:46:20;;;;;;;5.83;5.23;;;16.90;99.90;;;;;;5128414;27;20777;-38
2021/08/20 01:48:51;;;;;;;5.90;5.30;;;16.80;99.90;;;;;;5116589;27;20511;-39
2021/08/20 01:51:18;;;;;;;7.63;5.60;;;16.80;99.90;;;;;;5121588;27;20208;-41
2021/08/20 01:53:46;;;;;;;6.70;6.00;;;16.80;99.90;;;;;;5128342;27;20733;-40
2021/08/20 01:56:22;;;;;;;7.30;6.60;;;16.80;99.90;;;;;;5127771;27;20416;-38
2021/08/20 01:58:56;;;;;;;7.27;6.57;;;16.70;99.90;;;;;;5127714;27;20515;-38
2021/08/20 02:01:22;;;;;;;6.87;6.17;;;16.70;99.90;;;;;;5126610;27;20455;-40
2021/08/20 02:03:48;;;;;;;7.50;6.10;;;16.70;99.90;;;;;;5117321;27;21254;-38
2021/08/20 02:06:13;;;;;;;7.40;6.80;;;16.70;99.90;;;;;;5127857;27;20421;-38
2021/08/20 02:08:39;;;;;;;7.63;6.53;;;16.70;99.90;;;;;;5126988;27;20206;-41
2021/08/20 02:11:05;;;;;;;8.13;7.00;;;16.70;99.90;;;;;;5121973;27;20549;-41
2021/08/20 02:13:31;;;;;;;6.70;6.07;;;16.60;99.90;;;;;;5127761;27;20179;-41
2021/08/20 02:15:57;;;;;;;7.23;6.50;;;16.60;99.90;;;;;;5127964;27;20412;-39
2021/08/20 02:18:23;;;;;;;6.73;6.13;;;16.60;99.90;;;;;;5119635;27;20795;-40
2021/08/20 02:20:49;;;;;;;9.80;6.10;;;16.60;99.90;;;;;;5126847;27;20329;-44
2021/08/20 02:23:15;;;;;;;6.87;6.27;;;16.60;99.90;;;;;;5127093;27;20210;-38
2021/08/20 02:25:41;;;;;;;7.93;7.20;;;16.50;99.90;;;;;;5127963;27;20269;-41
2021/08/20 02:28:06;;;;;;;7.07;6.43;;;16.50;99.90;;;;;;5127289;27;20511;-40
2021/08/20 02:30:33;;;;;;;9.63;8.50;;;16.50;99.90;;;;;;5126793;27;20481;-39
2021/08/20 02:32:59;;;;;;;9.40;8.47;;;16.50;99.90;;;;;;5121596;27;20227;-41
2021/08/20 02:35:25;;;;;;;9.67;8.67;;;16.50;99.90;;;;;;5124748;27;20509;-41
2021/08/20 02:37:52;;;;;;;11.33;10.33;;;16.60;99.90;;;;;;5121324;27;20187;-39
2021/08/20 02:40:19;;;;;;;12.50;10.90;;;16.60;99.90;;;;;;5126867;27;20428;-43
2021/08/20 02:42:44;;;;;;;11.10;10.03;;;16.60;99.90;;;;;;5126758;27;20428;-39
2021/08/20 02:45:10;;;;;;;10.13;9.13;;;16.60;99.90;;;;;;5127221;27;20530;-44
2021/08/20 02:47:36;;;;;;;12.17;10.87;;;16.60;99.90;;;;;;5123782;27;20182;-42
2021/08/20 02:50:02;;;;;;;10.77;9.73;;;16.60;99.90;;;;;;5098582;27;21017;-38
2021/08/20 02:52:28;;;;;;;10.30;9.30;;;16.50;99.90;;;;;;5126361;27;20420;-41
2021/08/20 02:54:54;;;;;;;10.27;9.27;;;16.60;99.90;;;;;;5127066;27;20435;-38
2021/08/20 02:57:23;;;;;;;10.33;9.33;;;16.60;99.90;;;;;;5127093;27;20266;-39
2021/08/20 02:59:49;;;;;;;9.13;8.33;;;16.60;99.90;;;;;;5108593;27;20252;-41
2021/08/20 03:02:15;;;;;;;10.03;9.00;;;16.50;99.90;;;;;;5125969;27;20516;-39
2021/08/20 03:04:41;;;;;;;9.47;8.10;;;16.50;99.90;;;;;;5110690;27;20439;-40
2021/08/20 03:07:07;;;;;;;9.53;8.53;;;16.50;99.90;;;;;;5126134;27;20562;-40
2021/08/20 03:09:32;;;;;;;11.00;9.07;;;16.50;99.90;;;;;;5125857;27;20238;-38
2021/08/20 03:11:58;;;;;;;8.70;7.90;;;16.50;99.90;;;;;;5117709;27;20183;-43
2021/08/20 03:14:24;;;;;;;9.50;8.60;;;16.50;99.90;;;;;;5126743;27;20210;-42
2021/08/20 03:16:49;;;;;;;9.63;8.70;;;16.50;99.90;;;;;;5126702;27;20710;-39
2021/08/20 03:19:16;;;;;;;10.60;9.50;;;16.50;99.90;;;;;;5111770;27;20686;-39
2021/08/20 03:21:41;;;;;;;10.13;9.13;;;16.40;99.90;;;;;;5126176;27;20179;-40
2021/08/20 03:24:07;;;;;;;10.10;8.30;;;16.50;99.90;;;;;;5106417;28;20423;-42
2021/08/20 03:26:33;;;;;;;8.73;7.90;;;16.50;99.90;;;;;;5110972;28;20193;-38
2021/08/20 03:28:59;;;;;;;9.30;8.40;;;16.50;99.90;;;;;;5126151;28;20560;-40
2021/08/20 03:31:24;;;;;;;9.20;8.27;;;16.40;99.90;;;;;;5126451;28;20276;-38
2021/08/20 03:33:50;;;;;;;10.13;9.13;;;16.40;99.90;;;;;;5117917;28;20641;-39
2021/08/20 03:36:16;;;;;;;8.80;8.00;;;16.40;99.90;;;;;;5122815;28;20262;-40
2021/08/20 03:38:42;;;;;;;10.67;9.47;;;16.30;99.90;;;;;;5126036;28;20178;-38
2021/08/20 03:41:07;;;;;;;10.87;9.43;;;16.30;99.90;;;;;;5126503;28;20179;-39
2021/08/20 03:43:33;;;;;;;11.63;8.90;;;16.20;99.90;;;;;;5126680;28;20187;-38
2021/08/20 03:45:59;;;;;;;10.53;9.43;;;16.20;99.90;;;;;;5126366;28;20194;-39
2021/08/20 03:48:24;;;;;;;10.60;9.33;;;16.20;99.90;;;;;;5120725;28;20187;-40
2021/08/20 03:50:50;;;;;;;10.97;9.87;;;16.30;99.90;;;;;;5120763;28;20199;-40
2021/08/20 03:53:16;;;;;;;11.30;10.03;;;16.30;99.90;;;;;;5126368;28;20174;-40
2021/08/20 03:55:41;;;;;;;13.13;10.47;;;16.30;99.90;;;;;;5126551;28;20187;-40
2021/08/20 03:58:07;;;;;;;11.57;8.93;;;16.30;99.90;;;;;;5126818;28;20179;-39
2021/08/20 04:00:35;;;;;;;10.80;9.80;;;16.30;99.90;;;;;;5124401;28;20194;-39
2021/08/20 04:03:00;;;;;;;10.50;9.50;;;16.20;99.90;;;;;;5123421;28;20187;-39
2021/08/20 04:05:26;;;;;;;12.20;9.63;;;16.20;99.90;;;;;;5115389;28;20462;-41
2021/08/20 04:07:52;;;;;;;12.17;10.70;;;16.20;99.90;;;;;;5121619;28;20229;-41
2021/08/20 04:10:17;;;;;;;14.00;11.20;;;16.20;99.90;;;;;;5120982;28;20242;-40
2021/08/20 04:12:43;;;;;;;15.03;11.73;;;16.10;99.90;;;;;;5117460;28;20273;-40
2021/08/20 04:15:10;;;;;;;13.50;12.07;;;16.10;99.90;;;;;;5126402;28;20191;-41
2021/08/20 04:17:35;;;;;;;14.20;12.00;;;16.10;99.90;;;;;;5126091;28;20463;-40
2021/08/20 04:20:01;;;;;;;12.53;10.70;;;16.00;99.90;;;;;;5115253;28;20475;-42
2021/08/20 04:22:27;;;;;;;15.77;11.90;;;16.10;99.90;;;;;;5125887;28;20350;-39
2021/08/20 04:24:52;;;;;;;13.73;12.17;;;16.10;99.90;;;;;;5126295;28;20187;-39
2021/08/20 04:27:18;;;;;;;17.67;12.40;;;16.10;99.90;;;;;;5126222;28;20186;-40
2021/08/20 04:29:44;;;;;;;16.07;12.90;;;16.00;99.90;;;;;;5127062;27;20683;-39
2021/08/20 04:32:10;;;;;;;13.37;11.83;;;16.00;99.90;;;;;;5130030;27;20433;-39
2021/08/20 04:34:36;;;;;;;18.33;13.27;;;16.00;99.90;;;;;;5120190;27;20742;-39
2021/08/20 04:37:01;;;;;;;14.87;12.40;;;16.00;99.90;;;;;;5129855;27;20310;-42
2021/08/20 04:39:27;;;;;;;14.50;13.00;;;16.00;99.90;;;;;;5128538;27;20337;-43
2021/08/20 04:41:53;;;;;;;15.37;13.77;;;16.00;99.90;;;;;;5129392;27;20815;-41
2021/08/20 04:44:18;;;;;;;16.77;13.30;;;16.10;99.90;;;;;;5111013;27;20187;-39
2021/08/20 04:46:44;;;;;;;16.50;14.67;;;16.10;99.90;;;;;;5129653;27;20183;-42
2021/08/20 04:49:10;;;;;;;15.93;13.77;;;16.00;99.90;;;;;;5123300;27;20652;-41
2021/08/20 04:51:36;;;;;;;15.77;13.60;;;16.00;99.90;;;;;;5121736;27;20251;-44
2021/08/20 04:54:02;;;;;;;18.13;13.90;;;16.10;99.90;;;;;;5129122;27;20201;-39
2021/08/20 04:56:27;;;;;;;16.90;15.00;;;16.00;99.90;;;;;;5128955;27;20808;-44
2021/08/20 04:58:53;;;;;;;16.00;14.30;;;16.00;99.90;;;;;;5107882;27;20419;-39
2021/08/20 05:01:19;;;;;;;16.70;14.33;;;16.10;99.90;;;;;;5118395;27;20210;-38
2021/08/20 05:03:46;;;;;;;16.93;15.13;;;16.10;99.90;;;;;;5107846;27;21198;-39
2021/08/20 05:06:12;;;;;;;16.13;14.50;;;16.00;99.90;;;;;;5119624;27;20421;-41
2021/08/20 05:08:39;;;;;;;16.60;14.10;;;16.10;99.90;;;;;;5128514;27;20432;-38
2021/08/20 05:11:05;;;;;;;16.23;14.53;;;16.00;99.90;;;;;;5118668;27;20453;-39
2021/08/20 05:13:31;;;;;;;19.37;15.27;;;16.10;99.90;;;;;;5122402;27;20779;-40
2021/08/20 05:15:57;;;;;;;16.77;14.23;;;16.10;99.90;;;;;;5128683;27;20423;-38
2021/08/20 05:18:23;;;;;;;16.90;15.10;;;16.20;99.90;;;;;;5128636;27;20420;-40
2021/08/20 05:20:48;;;;;;;17.53;15.73;;;16.10;99.90;;;;;;5119259;27;20187;-42
2021/08/20 05:23:14;;;;;;;18.03;14.90;;;16.10;99.90;;;;;;5125321;27;20179;-38
2021/08/20 05:25:40;;;;;;;17.63;15.70;;;16.00;99.90;;;;;;5108414;28;20191;-39
2021/08/20 05:28:08;;;;;;;18.63;13.83;;;16.00;99.90;;;;;;5117857;27;20427;-39
2021/08/20 05:30:35;;;;;;;16.40;14.60;;;16.00;99.90;;;;;;5127767;27;20267;-39
2021/08/20 05:33:00;;;;;;;19.00;16.30;;;16.10;99.90;;;;;;5110034;27;20447;-41
2021/08/20 05:35:26;;;;;;;15.83;14.13;;;16.00;99.90;;;;;;5116589;27;20434;-38
2021/08/20 05:37:52;;;;;;;20.03;15.47;;;16.10;99.90;;;;;;5126660;27;20621;-39
2021/08/20 05:40:17;;;;;;;15.70;13.93;;;16.10;99.90;;;;;;5127551;27;20308;-38
2021/08/20 05:42:43;;;;;;;19.50;15.17;;;16.10;99.90;;;;;;5109847;27;20190;-41
2021/08/20 05:45:09;;;;;;;15.77;13.50;;;16.10;99.90;;;;;;5128557;27;20551;-38
2021/08/20 05:47:36;;;;;;;16.30;13.50;;;16.20;99.90;;;;;;5126857;27;20222;-39
2021/08/20 05:50:02;;;;;;;15.60;12.57;;;16.20;99.90;;;;;;5119308;27;20472;-41
2021/08/20 05:52:28;;;;;;;16.20;12.97;;;16.20;99.90;;;;;;5124315;27;20439;-41
2021/08/20 05:54:54;;;;;;;13.10;11.80;;;16.30;99.90;;;;;;5125068;27;20413;-41
2021/08/20 05:57:19;;;;;;;14.83;13.03;;;16.30;99.90;;;;;;5125929;27;20661;-38
2021/08/20 05:59:45;;;;;;;22.00;13.50;;;16.30;99.90;;;;;;5127533;27;20201;-42
2021/08/20 06:02:11;;;;;;;15.13;12.73;;;16.30;99.90;;;;;;5127882;27;20179;-40
2021/08/20 06:04:36;;;;;;;17.97;13.50;;;16.30;99.90;;;;;;5123463;27;20498;-41
2021/08/20 06:07:05;;;;;;;15.40;11.90;;;16.30;99.90;;;;;;5106291;27;20377;-38
2021/08/20 06:09:31;;;;;;;18.07;13.63;;;16.30;99.90;;;;;;5126506;27;20286;-40
2021/08/20 06:11:57;;;;;;;15.07;12.37;;;16.40;99.90;;;;;;5110165;27;20518;-40
2021/08/20 06:14:22;;;;;;;16.07;12.33;;;16.40;99.90;;;;;;5124771;27;20187;-38
2021/08/20 06:16:48;;;;;;;16.17;12.60;;;16.40;99.90;;;;;;5126330;27;20183;-41
2021/08/20 06:19:14;;;;;;;14.90;12.00;;;16.50;99.90;;;;;;5121181;27;20236;-42
2021/08/20 06:21:39;;;;;;;16.10;12.50;;;16.50;99.90;;;;;;5102467;27;20191;-40
2021/08/20 06:24:05;;;;;;;15.90;12.83;;;16.50;99.90;;;;;;5125891;27;20270;-38
2021/08/20 06:26:31;;;;;;;20.53;13.60;;;16.60;99.90;;;;;;5124913;27;20187;-43
2021/08/20 06:28:58;;;;;;;18.10;13.23;;;16.50;99.90;;;;;;5119328;27;20271;-41
2021/08/20 06:31:24;;;;;;;14.13;11.73;;;16.60;99.90;;;;;;5111649;27;20218;-40
2021/08/20 06:33:51;;;;;;;19.17;13.77;;;16.60;99.90;;;;;;5106872;28;20422;-38
2021/08/20 06:36:17;;;;;;;14.20;11.50;;;16.60;99.90;;;;;;5115022;27;20191;-40
2021/08/20 06:38:42;;;;;;;18.43;13.37;;;16.60;99.90;;;;;;5126737;27;20816;-39
2021/08/20 06:41:08;;;;;;;19.83;13.33;;;16.60;99.90;;;;;;5126922;27;20186;-39
2021/08/20 06:43:34;;;;;;;17.00;12.57;;;16.60;99.90;;;;;;5127168;27;20269;-39
2021/08/20 06:45:59;;;;;;;19.10;12.90;;;16.70;99.90;;;;;;5126705;27;20610;-40
2021/08/20 06:48:25;;;;;;;15.23;12.20;;;16.70;99.90;;;;;;5127055;27;20274;-38
2021/08/20 06:50:52;;;;;;;15.73;12.67;;;16.70;99.90;;;;;;5119024;27;20647;-39
2021/08/20 06:53:18;;;;;;;17.53;12.80;;;16.70;99.90;;;;;;5126028;27;20677;-42
2021/08/20 06:55:43;;;;;;;19.57;13.07;;;16.70;99.90;;;;;;5126028;27;20412;-38
2021/08/20 06:58:09;;;;;;;16.60;12.60;;;16.70;99.90;;;;;;5125564;27;20186;-39
2021/08/20 07:00:34;;;;;;;20.20;13.30;;;16.80;99.90;;;;;;5122185;27;20172;-39
2021/08/20 07:03:00;;;;;;;18.40;13.80;;;16.80;99.90;;;;;;5126631;27;20209;-38
2021/08/20 07:05:26;;;;;;;19.00;14.43;;;16.80;99.90;;;;;;5120450;27;20231;-39
2021/08/20 07:07:51;;;;;;;18.90;15.63;;;16.80;99.90;;;;;;5125517;27;20187;-39
2021/08/20 07:10:18;;;;;;;18.17;14.37;;;16.80;99.90;;;;;;5103883;28;20263;-40
2021/08/20 07:12:45;;;;;;;16.80;13.07;;;16.80;99.90;;;;;;5106987;27;20223;-39
2021/08/20 07:15:12;;;;;;;21.50;14.80;;;16.80;99.90;;;;;;5126826;27;20843;-38
2021/08/20 07:17:38;;;;;;;17.20;14.00;;;16.80;99.90;;;;;;5126732;27;20477;-38
2021/08/20 07:20:06;;;;;;;19.50;14.40;;;16.80;99.90;;;;;;5109051;28;20432;-41
2021/08/20 07:22:32;;;;;;;24.03;15.73;;;16.80;99.90;;;;;;5124386;27;20429;-39
2021/08/20 07:24:57;;;;;;;25.50;16.80;;;16.80;99.90;;;;;;5126822;28;20437;-40
2021/08/20 07:27:23;;;;;;;20.00;15.93;;;16.90;99.90;;;;;;5126242;28;20194;-39
2021/08/20 07:29:49;;;;;;;20.97;17.03;;;16.90;99.90;;;;;;5125445;28;20191;-40
2021/08/20 07:32:15;;;;;;;19.83;14.93;;;16.90;99.90;;;;;;5125885;28;20281;-40
2021/08/20 07:34:41;;;;;;;24.93;16.13;;;16.90;99.90;;;;;;5117787;28;20430;-41
2021/08/20 07:37:06;;;;;;;20.17;15.30;;;16.90;99.90;;;;;;5113438;28;20425;-39
2021/08/20 07:39:36;;;;;;;23.30;16.37;;;17.00;99.90;;;;;;5125571;28;20183;-40
2021/08/20 07:42:02;;;;;;;22.90;16.53;;;17.00;99.90;;;;;;5114195;28;20215;-39
2021/08/20 07:44:27;;;;;;;22.60;16.57;;;17.00;99.90;;;;;;5118004;28;20473;-38
2021/08/20 07:46:53;;;;;;;22.87;16.47;;;17.00;99.90;;;;;;5126056;28;20425;-39
2021/08/20 07:49:19;;;;;;;23.53;17.73;;;17.10;99.90;;;;;;5124665;28;20653;-41
2021/08/20 07:51:44;;;;;;;23.87;17.40;;;17.10;99.90;;;;;;5110533;28;20211;-43
2021/08/20 07:54:10;;;;;;;26.03;17.00;;;17.10;99.90;;;;;;5124841;28;20183;-40
2021/08/20 07:56:36;;;;;;;25.17;18.50;;;17.10;99.90;;;;;;5126270;28;20233;-38
2021/08/20 07:59:01;;;;;;;23.10;19.13;;;17.10;99.90;;;;;;5107076;28;20198;-39
2021/08/20 08:01:27;;;;;;;27.67;19.40;;;17.10;99.90;;;;;;5124817;28;20194;-40
2021/08/20 08:03:57;;;;;;;29.93;20.37;;;17.10;99.90;;;;;;5128702;27;20190;-42
2021/08/20 08:06:24;;;;;;;23.43;18.57;;;17.10;99.90;;;;;;5117565;27;20252;-41
2021/08/20 08:08:50;;;;;;;28.10;20.83;;;17.10;99.90;;;;;;5129055;27;20468;-40
2021/08/20 08:11:16;;;;;;;25.60;19.83;;;17.20;99.90;;;;;;5118467;27;20480;-39
2021/08/20 08:13:42;;;;;;;28.57;20.17;;;17.30;99.90;;;;;;5114637;27;20919;-39
2021/08/20 08:16:07;;;;;;;29.17;20.90;;;17.40;99.90;;;;;;5130282;27;20691;-47
2021/08/20 08:18:33;;;;;;;26.40;20.10;;;17.40;99.90;;;;;;5130078;27;20214;-43
2021/08/20 08:20:59;;;;;;;28.03;19.33;;;17.50;99.90;;;;;;5121128;27;20278;-39
2021/08/20 08:23:25;;;;;;;25.93;19.77;;;17.40;99.90;;;;;;5127034;27;20187;-39
2021/08/20 08:25:51;;;;;;;25.97;18.90;;;17.40;99.90;;;;;;5129758;27;20968;-41
2021/08/20 08:28:18;;;;;;;24.50;18.57;;;17.50;99.90;;;;;;5130176;27;20201;-38
2021/08/20 08:30:47;;;;;;;25.40;18.17;;;17.50;99.90;;;;;;5129226;27;20302;-42
2021/08/20 08:33:13;;;;;;;25.90;18.10;;;17.50;99.90;;;;;;5129847;27;20428;-43
2021/08/20 08:35:39;;;;;;;25.83;19.00;;;17.50;99.90;;;;;;5124123;27;20444;-41
2021/08/20 08:38:10;;;;;;;25.27;18.07;;;17.60;99.90;;;;;;5128744;27;20286;-40
2021/08/20 08:40:45;;;;;;;22.00;18.10;;;17.60;99.90;;;;;;5128571;27;20217;-38
2021/08/20 08:43:11;;;;;;;20.00;17.17;;;17.50;99.90;;;;;;5129584;27;20424;-40
2021/08/20 08:45:38;;;;;;;26.00;18.00;;;17.60;99.90;;;;;;5129622;27;20488;-39
2021/08/20 08:48:06;;;;;;;23.03;16.93;;;17.60;99.90;;;;;;5129844;27;20412;-39
2021/08/20 08:50:33;;;;;;;21.70;17.37;;;17.70;99.90;;;;;;5123005;27;20465;-43
2021/08/20 08:52:59;;;;;;;21.07;17.90;;;17.70;99.90;;;;;;5122535;27;20489;-39
2021/08/20 08:55:25;;;;;;;23.00;16.20;;;17.80;99.90;;;;;;5124637;27;20428;-40
2021/08/20 08:57:51;;;;;;;24.03;18.60;;;17.90;99.90;;;;;;5129492;27;20779;-41
2021/08/20 09:00:38;;;;;;;22.23;17.67;;;18.00;99.90;;;;;;5128674;27;20229;-40
2021/08/20 09:03:07;;;;;;;18.97;16.80;;;18.10;99.90;;;;;;5129059;27;20210;-42
2021/08/20 09:05:43;;;;;;;21.50;16.13;;;18.10;99.90;;;;;;5106211;27;20520;-44
2021/08/20 09:08:17;;;;;;;18.37;15.10;;;18.20;99.90;;;;;;5123647;27;20440;-39
2021/08/20 09:10:48;;;;;;;17.73;15.83;;;18.30;99.90;;;;;;5120251;27;20452;-39
2021/08/20 09:13:14;;;;;;;20.20;16.70;;;18.40;99.90;;;;;;5109942;27;20523;-39
2021/08/20 09:15:40;;;;;;;19.00;15.10;;;18.50;99.90;;;;;;5109445;27;20798;-41
2021/08/20 09:18:06;;;;;;;17.03;14.10;;;18.60;99.90;;;;;;5126123;27;20417;-40
2021/08/20 09:20:35;;;;;;;15.10;11.80;;;18.60;99.90;;;;;;5125753;27;20432;-40
2021/08/20 09:23:02;;;;;;;15.47;13.43;;;18.60;99.90;;;;;;5125506;27;20183;-38
2021/08/20 09:25:40;;;;;;;15.87;13.63;;;18.70;99.90;;;;;;5128765;27;20425;-39
2021/08/20 09:28:20;;;;;;;14.97;13.43;;;18.80;99.90;;;;;;5127710;27;20511;-43
2021/08/20 09:31:12;;;;;;;12.53;11.10;;;18.90;99.90;;;;;;5128277;27;20491;-40
2021/08/20 09:33:49;;;;;;;11.73;9.90;;;19.10;99.90;;;;;;5124057;27;20417;-42
2021/08/20 09:36:20;;;;;;;8.23;7.30;;;19.10;99.90;;;;;;5119452;27;20425;-39
2021/08/20 09:38:54;;;;;;;7.90;7.10;;;19.20;99.90;;;;;;5119042;27;20895;-45
2021/08/20 09:41:33;;;;;;;9.07;8.17;;;19.40;99.90;;;;;;5127977;27;20423;-40
2021/08/20 09:44:03;;;;;;;10.33;8.30;;;19.40;99.90;;;;;;5128143;27;20489;-38
2021/08/20 09:46:46;;;;;;;11.43;10.23;;;19.50;99.90;;;;;;5128511;27;20424;-40
2021/08/20 09:49:15;;;;;;;10.87;9.77;;;19.60;99.90;;;;;;5127185;27;20448;-42
2021/08/20 09:51:49;;;;;;;11.60;10.27;;;19.70;99.90;;;;;;5117885;27;20518;-42
2021/08/20 09:54:16;;;;;;;11.20;9.83;;;19.80;99.90;;;;;;5126672;27;20949;-39
2021/08/20 09:56:43;;;;;;;11.33;10.13;;;19.80;99.90;;;;;;5128468;27;20408;-40
2021/08/20 09:59:10;;;;;;;10.77;9.50;;;19.90;99.90;;;;;;5127170;27;20470;-39
2021/08/20 10:01:39;;;;;;;10.43;8.60;;;19.90;99.90;;;;;;5126200;27;20428;-42
2021/08/20 10:04:11;;;;;;;8.73;7.83;;;20.10;99.90;;;;;;5128093;27;20443;-41
2021/08/20 10:06:41;;;;;;;9.60;8.57;;;20.20;99.90;;;;;;5119875;27;20445;-43
2021/08/20 10:09:16;;;;;;;9.10;7.70;;;20.30;99.90;;;;;;5121560;27;20455;-40
2021/08/20 10:11:50;;;;;;;7.63;6.20;;;20.40;99.90;;;;;;5127474;27;20455;-40
2021/08/20 10:14:17;;;;;;;7.50;6.80;;;20.50;99.90;;;;;;5127436;27;20487;-45
2021/08/20 10:16:43;;;;;;;7.00;6.30;;;20.60;99.90;;;;;;5127986;27;20416;-41
2021/08/20 10:19:11;;;;;;;7.90;6.23;;;20.70;99.90;;;;;;5127229;27;20409;-45
2021/08/20 10:21:39;;;;;;;5.20;4.70;;;20.80;99.90;;;;;;5122411;27;20438;-39
2021/08/20 10:24:07;;;;;;;4.93;4.43;;;20.80;99.90;;;;;;5127213;27;20772;-42
2021/08/20 10:26:37;;;;;;;4.80;4.30;;;20.80;99.90;;;;;;5124149;27;20423;-41
2021/08/20 10:29:03;;;;;;;5.13;3.83;;;20.80;99.90;;;;;;5125857;27;20593;-40
2021/08/20 10:31:30;;;;;;;4.50;4.10;;;20.80;99.90;;;;;;5106377;27;20544;-40
2021/08/20 10:33:56;;;;;;;4.20;3.80;;;20.80;99.90;;;;;;5106461;28;20418;-40
2021/08/20 10:37:02;;;;;;;4.20;3.80;;;20.80;99.90;;;;;;5106606;28;20440;-42
2021/08/20 10:39:27;;;;;;;3.80;3.20;;;20.70;99.90;;;;;;5110871;27;20183;-39
2021/08/20 10:42:49;;;;;;;6.20;3.87;;;20.70;99.90;;;;;;5127146;27;20476;-41
2021/08/20 10:45:15;;;;;;;4.00;3.60;;;20.70;99.90;;;;;;5120657;27;20623;-39
2021/08/20 10:47:42;;;;;;;3.20;2.90;;;20.70;99.90;;;;;;5127050;27;20637;-46
2021/08/20 10:50:13;;;;;;;5.60;4.17;;;20.70;99.90;;;;;;5126658;27;20241;-41
2021/08/20 10:52:41;;;;;;;5.77;4.40;;;20.70;99.90;;;;;;5120194;27;20432;-42
2021/08/20 10:55:08;;;;;;;4.30;3.90;;;20.70;99.90;;;;;;5127087;27;20750;-39
2021/08/20 10:57:34;;;;;;;6.30;4.17;;;20.70;99.90;;;;;;5127372;27;20503;-44
2021/08/20 10:59:59;;;;;;;4.90;4.10;;;20.80;99.90;;;;;;5126046;27;20503;-43
2021/08/20 11:02:25;;;;;;;4.30;3.70;;;20.80;99.90;;;;;;5125379;27;20190;-40
2021/08/20 11:05:01;;;;;;;4.93;3.70;;;20.90;99.90;;;;;;5108575;27;20194;-39
2021/08/20 11:07:39;;;;;;;4.90;3.90;;;20.80;99.90;;;;;;5117851;27;20195;-45
2021/08/20 11:10:08;;;;;;;4.83;3.67;;;20.80;99.90;;;;;;5126072;27;20458;-39
2021/08/20 11:12:53;;;;;;;3.70;3.10;;;20.70;99.90;;;;;;5126531;27;20873;-45
2021/08/20 11:15:21;;;;;;;4.10;3.70;;;20.70;99.90;;;;;;5108293;27;20420;-42
2021/08/20 11:17:52;;;;;;;5.13;2.70;;;20.60;99.90;;;;;;5126659;27;20443;-42
2021/08/20 11:20:21;;;;;;;3.70;2.83;;;20.60;99.90;;;;;;5126095;27;20428;-41
2021/08/20 11:25:36;;;;;;;3.10;2.30;;;20.50;99.90;;;;;;5118957;28;20434;-40
2021/08/20 11:28:18;;;;;;;3.83;3.53;;;20.50;99.90;;;;;;5126570;28;20622;-42
2021/08/20 11:31:06;;;;;;;4.03;3.73;;;20.40;99.90;;;;;;5125966;28;20444;-41
2021/08/20 11:33:35;;;;;;;2.90;2.70;;;20.40;99.90;;;;;;5113911;28;20485;-43
2021/08/20 11:36:23;;;;;;;3.40;3.10;;;20.40;99.90;;;;;;5126762;28;20810;-41
2021/08/20 11:38:55;;;;;;;3.40;3.10;;;20.40;99.90;;;;;;5119839;27;20431;-45
2021/08/20 11:41:30;;;;;;;3.60;3.30;;;20.40;99.90;;;;;;5130732;27;20473;-41
2021/08/20 11:43:58;;;;;;;4.70;4.30;;;20.40;99.90;;;;;;5130568;27;21012;-41
2021/08/20 11:46:44;;;;;;;4.93;4.53;;;20.40;99.90;;;;;;5130798;27;20425;-41
2021/08/20 11:49:12;;;;;;;4.40;4.00;;;20.30;99.90;;;;;;5129942;27;20448;-41
2021/08/20 11:51:40;;;;;;;3.53;3.27;;;20.30;99.90;;;;;;5127727;27;20548;-39
2021/08/20 11:54:08;;;;;;;3.80;3.50;;;20.30;99.90;;;;;;5126330;27;20820;-44
2021/08/20 11:56:35;;;;;;;3.57;3.27;;;20.30;99.90;;;;;;5130642;27;21100;-42
2021/08/20 11:59:11;;;;;;;4.30;3.90;;;20.30;99.90;;;;;;5129940;27;20796;-45
2021/08/20 12:01:38;;;;;;;3.83;3.53;;;20.30;99.90;;;;;;5129319;27;20765;-39
2021/08/20 12:04:08;;;;;;;3.87;3.57;;;20.40;99.90;;;;;;5111758;27;20805;-39
2021/08/20 12:06:35;;;;;;;8.23;4.50;;;20.40;99.90;;;;;;5127305;27;20419;-44
2021/08/20 12:09:09;;;;;;;3.93;3.63;;;20.50;99.90;;;;;;5120175;27;20481;-43
2021/08/20 12:11:34;;;;;;;3.60;3.30;;;20.40;99.90;;;;;;5126179;27;20459;-41
2021/08/20 12:14:00;;;;;;;5.63;2.77;;;20.40;99.90;;;;;;5130528;27;20421;-45
2021/08/20 12:16:41;;;;;;;2.93;2.73;;;20.30;99.90;;;;;;5129972;27;20212;-42
2021/08/20 12:19:14;;;;;;;3.17;2.87;;;20.30;99.90;;;;;;5129793;27;20659;-45
2021/08/20 12:21:44;;;;;;;2.60;2.40;;;20.30;99.90;;;;;;5127168;27;20465;-42
2021/08/20 12:24:10;;;;;;;3.10;2.80;;;20.20;99.90;;;;;;5122843;27;20507;-44
2021/08/20 12:26:35;;;;;;;3.30;3.00;;;20.20;99.90;;;;;;5129571;27;20417;-42
2021/08/20 12:29:17;;;;;;;3.83;2.70;;;20.20;99.90;;;;;;5129227;27;20447;-42
2021/08/20 12:31:57;;;;;;;3.23;2.93;;;20.10;99.90;;;;;;5129291;27;20237;-40
2021/08/20 12:34:31;;;;;;;3.13;2.83;;;20.20;99.90;;;;;;5129911;27;20417;-42
2021/08/20 12:36:59;;;;;;;3.33;3.03;;;20.30;99.90;;;;;;5125497;27;20437;-42
2021/08/20 12:39:44;;;;;;;2.37;2.17;;;20.40;99.90;;;;;;5125381;27;20874;-43
2021/08/20 12:42:23;;;;;;;2.43;2.17;;;20.50;99.90;;;;;;5128203;27;20430;-42